createdAt,value
2022-12-23T00:00:21.000Z,989.7431280000001
2022-12-23T00:00:56.000Z,989.641536
2022-12-23T00:01:26.000Z,989.641536
2022-12-23T00:02:01.000Z,989.539944
2022-12-23T00:02:31.000Z,989.641536
2022-12-23T00:03:01.000Z,989.641536
2022-12-23T00:03:30.000Z,989.539944
2022-12-23T00:03:48.000Z,989.539944
2022-12-23T00:04:06.000Z,989.539944
2022-12-23T00:04:31.000Z,989.539944
2022-12-23T00:04:56.000Z,989.539944
2022-12-23T00:05:26.000Z,989.539944
2022-12-23T00:06:01.000Z,989.7431280000001
2022-12-23T00:06:31.000Z,989.641536
2022-12-23T00:07:01.000Z,989.641536
2022-12-23T00:07:27.000Z,989.438352
2022-12-23T00:07:51.000Z,989.438352
2022-12-23T00:08:21.000Z,989.438352
2022-12-23T00:08:56.000Z,989.641536
2022-12-23T00:09:26.000Z,989.641536
2022-12-23T00:10:01.000Z,989.641536
2022-12-23T00:10:32.000Z,989.641536
2022-12-23T00:11:00.000Z,989.641536
2022-12-23T00:11:30.000Z,989.641536
2022-12-23T00:11:53.000Z,989.641536
2022-12-23T00:12:20.000Z,989.641536
2022-12-23T00:12:56.000Z,989.7431280000001
2022-12-23T00:13:26.000Z,989.7431280000001
2022-12-23T00:14:01.000Z,989.7431280000001
2022-12-23T00:14:31.000Z,989.7431280000001
2022-12-23T00:15:01.000Z,989.7431280000001
2022-12-23T00:15:27.000Z,989.641536
2022-12-23T00:15:51.000Z,989.641536
2022-12-23T00:16:21.000Z,989.641536
2022-12-23T00:16:56.000Z,989.8447199999999
2022-12-23T00:17:26.000Z,989.8447199999999
2022-12-23T00:18:01.000Z,989.438352
2022-12-23T00:18:31.000Z,989.7431280000001
2022-12-23T00:19:02.000Z,989.7431280000001
2022-12-23T00:19:27.000Z,989.8447199999999
2022-12-23T00:19:48.000Z,989.8447199999999
2022-12-23T00:20:06.000Z,989.8447199999999
2022-12-23T00:20:31.000Z,989.7431280000001
2022-12-23T00:20:56.000Z,989.7431280000001
2022-12-23T00:21:26.000Z,989.7431280000001
2022-12-23T00:22:01.000Z,989.7431280000001
2022-12-23T00:22:31.000Z,989.641536
2022-12-23T00:23:01.000Z,989.641536
2022-12-23T00:23:27.000Z,989.438352
2022-12-23T00:23:51.000Z,989.438352
2022-12-23T00:24:21.000Z,989.438352
2022-12-23T00:24:56.000Z,989.8447199999999
2022-12-23T00:25:26.000Z,989.8447199999999
2022-12-23T00:26:10.000Z,989.7431280000001
2022-12-23T00:26:31.000Z,989.7431280000001
2022-12-23T00:27:01.000Z,989.7431280000001
2022-12-23T00:27:27.000Z,989.7431280000001
2022-12-23T00:28:06.000Z,989.7431280000001
2022-12-23T00:28:31.000Z,989.7431280000001
2022-12-23T00:28:56.000Z,989.7431280000001
2022-12-23T00:29:26.000Z,989.7431280000001
2022-12-23T00:30:01.000Z,989.8447199999999
2022-12-23T00:30:31.000Z,989.8447199999999
2022-12-23T00:31:01.000Z,989.8447199999999
2022-12-23T00:31:27.000Z,989.8447199999999
2022-12-23T00:31:51.000Z,989.8447199999999
2022-12-23T00:32:21.000Z,989.8447199999999
2022-12-23T00:32:56.000Z,989.7431280000001
2022-12-23T00:33:35.000Z,989.641536
2022-12-23T00:34:00.000Z,989.641536
2022-12-23T00:34:26.000Z,989.641536
2022-12-23T00:34:55.000Z,989.641536
2022-12-23T00:35:21.000Z,989.641536
2022-12-23T00:35:51.000Z,989.539944
2022-12-23T00:36:21.000Z,989.539944
2022-12-23T00:36:56.000Z,989.641536
2022-12-23T00:37:26.000Z,989.641536
2022-12-23T00:38:01.000Z,989.8447199999999
2022-12-23T00:38:31.000Z,989.641536
2022-12-23T00:39:01.000Z,989.641536
2022-12-23T00:39:28.000Z,989.7431280000001
2022-12-23T00:39:51.000Z,989.7431280000001
2022-12-23T00:40:21.000Z,989.7431280000001
2022-12-23T00:40:56.000Z,989.7431280000001
2022-12-23T00:41:26.000Z,989.7431280000001
2022-12-23T00:42:01.000Z,989.641536
2022-12-23T00:42:31.000Z,989.641536
2022-12-23T00:43:01.000Z,989.641536
2022-12-23T00:43:27.000Z,989.8447199999999
2022-12-23T00:43:51.000Z,989.8447199999999
2022-12-23T00:44:21.000Z,989.8447199999999
2022-12-23T00:44:56.000Z,989.7431280000001
2022-12-23T00:45:26.000Z,989.7431280000001
2022-12-23T00:46:01.000Z,989.8447199999999
2022-12-23T00:46:31.000Z,989.641536
2022-12-23T00:47:01.000Z,989.641536
2022-12-23T00:47:27.000Z,989.641536
2022-12-23T00:47:51.000Z,989.641536
2022-12-23T00:48:30.000Z,989.7431280000001
2022-12-23T00:48:55.000Z,989.7431280000001
2022-12-23T00:49:24.000Z,989.7431280000001
2022-12-23T00:49:47.000Z,989.7431280000001
2022-12-23T00:50:19.000Z,989.7431280000001
2022-12-23T00:50:47.000Z,989.7431280000001
2022-12-23T00:51:21.000Z,989.7431280000001
2022-12-23T00:52:00.000Z,989.8447199999999
2022-12-23T00:52:30.000Z,989.641536
2022-12-23T00:52:55.000Z,989.641536
2022-12-23T00:53:24.000Z,989.641536
2022-12-23T00:53:47.000Z,989.7431280000001
2022-12-23T00:54:16.000Z,989.7431280000001
2022-12-23T00:54:46.000Z,989.7431280000001
2022-12-23T00:55:21.000Z,989.7431280000001
2022-12-23T00:55:51.000Z,989.8447199999999
2022-12-23T00:56:21.000Z,989.8447199999999
2022-12-23T00:56:56.000Z,989.7431280000001
2022-12-23T00:57:26.000Z,989.7431280000001
2022-12-23T00:58:01.000Z,989.7431280000001
2022-12-23T00:58:31.000Z,989.7431280000001
2022-12-23T00:59:01.000Z,989.7431280000001
2022-12-23T00:59:28.000Z,989.7431280000001
2022-12-23T00:59:52.000Z,989.7431280000001
2022-12-23T01:00:20.000Z,989.7431280000001
2022-12-23T01:00:56.000Z,989.641536
2022-12-23T01:01:26.000Z,989.641536
2022-12-23T01:02:01.000Z,989.539944
2022-12-23T01:02:31.000Z,989.8447199999999
2022-12-23T01:03:01.000Z,989.8447199999999
2022-12-23T01:03:28.000Z,989.7431280000001
2022-12-23T01:03:51.000Z,989.7431280000001
2022-12-23T01:04:21.000Z,989.7431280000001
2022-12-23T01:04:56.000Z,989.8447199999999
2022-12-23T01:05:26.000Z,989.8447199999999
2022-12-23T01:06:01.000Z,989.539944
2022-12-23T01:06:31.000Z,989.539944
2022-12-23T01:07:01.000Z,989.539944
2022-12-23T01:07:27.000Z,989.641536
2022-12-23T01:07:48.000Z,989.641536
2022-12-23T01:08:15.000Z,989.641536
2022-12-23T01:08:41.000Z,989.8447199999999
2022-12-23T01:09:11.000Z,989.8447199999999
2022-12-23T01:09:32.000Z,989.7431280000001
2022-12-23T01:10:01.000Z,989.7431280000001
2022-12-23T01:10:31.000Z,989.33676
2022-12-23T01:11:01.000Z,989.33676
2022-12-23T01:11:21.000Z,989.33676
2022-12-23T01:11:51.000Z,989.7431280000001
2022-12-23T01:12:21.000Z,989.7431280000001
2022-12-23T01:12:56.000Z,989.8447199999999
2022-12-23T01:13:26.000Z,989.8447199999999
2022-12-23T01:14:01.000Z,989.7431280000001
2022-12-23T01:14:31.000Z,989.7431280000001
2022-12-23T01:15:02.000Z,989.7431280000001
2022-12-23T01:15:30.000Z,989.8447199999999
2022-12-23T01:15:53.000Z,989.8447199999999
2022-12-23T01:16:20.000Z,989.8447199999999
2022-12-23T01:16:47.000Z,989.7431280000001
2022-12-23T01:17:12.000Z,989.7431280000001
2022-12-23T01:17:35.000Z,989.8447199999999
2022-12-23T01:18:00.000Z,989.8447199999999
2022-12-23T01:18:26.000Z,989.9124479999999
2022-12-23T01:18:55.000Z,989.9124479999999
2022-12-23T01:19:22.000Z,989.9124479999999
2022-12-23T01:19:48.000Z,989.7431280000001
2022-12-23T01:20:15.000Z,989.7431280000001
2022-12-23T01:20:42.000Z,989.8447199999999
2022-12-23T01:21:08.000Z,989.8447199999999
2022-12-23T01:21:35.000Z,989.7431280000001
2022-12-23T01:22:01.000Z,989.7431280000001
2022-12-23T01:22:31.000Z,989.7431280000001
2022-12-23T01:23:01.000Z,989.7431280000001
2022-12-23T01:23:27.000Z,989.8447199999999
2022-12-23T01:23:51.000Z,989.8447199999999
2022-12-23T01:24:21.000Z,989.8447199999999
2022-12-23T01:24:56.000Z,989.9124479999999
2022-12-23T01:25:26.000Z,989.9124479999999
2022-12-23T01:26:01.000Z,989.9124479999999
2022-12-23T01:26:31.000Z,989.9124479999999
2022-12-23T01:27:01.000Z,989.9124479999999
2022-12-23T01:27:27.000Z,989.7431280000001
2022-12-23T01:27:51.000Z,989.7431280000001
2022-12-23T01:28:22.000Z,989.7431280000001
2022-12-23T01:28:56.000Z,989.9124479999999
2022-12-23T01:29:26.000Z,989.9124479999999
2022-12-23T01:30:01.000Z,989.7431280000001
2022-12-23T01:30:31.000Z,989.9124479999999
2022-12-23T01:31:01.000Z,989.9124479999999
2022-12-23T01:31:27.000Z,989.9124479999999
2022-12-23T01:31:51.000Z,989.9124479999999
2022-12-23T01:32:21.000Z,989.9124479999999
2022-12-23T01:32:56.000Z,989.7431280000001
2022-12-23T01:33:26.000Z,989.7431280000001
2022-12-23T01:34:01.000Z,989.7431280000001
2022-12-23T01:34:31.000Z,989.9124479999999
2022-12-23T01:35:01.000Z,989.9124479999999
2022-12-23T01:35:37.000Z,989.9124479999999
2022-12-23T01:36:04.000Z,989.9124479999999
2022-12-23T01:36:30.000Z,990.01404
2022-12-23T01:36:55.000Z,990.01404
2022-12-23T01:37:24.000Z,990.01404
2022-12-23T01:37:47.000Z,989.8447199999999
2022-12-23T01:38:12.000Z,989.8447199999999
2022-12-23T01:38:40.000Z,990.01404
2022-12-23T01:39:03.000Z,990.01404
2022-12-23T01:39:30.000Z,990.01404
2022-12-23T01:39:53.000Z,990.01404
2022-12-23T01:40:20.000Z,990.01404
2022-12-23T01:40:56.000Z,989.9124479999999
2022-12-23T01:41:26.000Z,989.9124479999999
2022-12-23T01:42:01.000Z,989.9124479999999
2022-12-23T01:42:31.000Z,990.318816
2022-12-23T01:43:01.000Z,990.318816
2022-12-23T01:43:27.000Z,990.115632
2022-12-23T01:43:51.000Z,990.115632
2022-12-23T01:44:21.000Z,990.115632
2022-12-23T01:44:56.000Z,989.9124479999999
2022-12-23T01:45:26.000Z,989.9124479999999
2022-12-23T01:46:01.000Z,990.01404
2022-12-23T01:46:31.000Z,989.9124479999999
2022-12-23T01:47:10.000Z,989.9124479999999
2022-12-23T01:47:37.000Z,989.9124479999999
2022-12-23T01:48:06.000Z,989.9124479999999
2022-12-23T01:48:31.000Z,990.115632
2022-12-23T01:48:56.000Z,990.115632
2022-12-23T01:49:26.000Z,990.115632
2022-12-23T01:50:01.000Z,990.01404
2022-12-23T01:50:31.000Z,990.01404
2022-12-23T01:51:01.000Z,990.01404
2022-12-23T01:51:28.000Z,990.115632
2022-12-23T01:51:51.000Z,990.115632
2022-12-23T01:52:21.000Z,990.115632
2022-12-23T01:52:56.000Z,990.2172240000001
2022-12-23T01:53:26.000Z,990.2172240000001
2022-12-23T01:54:01.000Z,990.2172240000001
2022-12-23T01:54:32.000Z,990.2172240000001
2022-12-23T01:55:01.000Z,990.2172240000001
2022-12-23T01:55:28.000Z,990.115632
2022-12-23T01:55:51.000Z,990.115632
2022-12-23T01:56:21.000Z,990.115632
2022-12-23T01:56:55.000Z,990.01404
2022-12-23T01:57:26.000Z,990.01404
2022-12-23T01:58:01.000Z,990.115632
2022-12-23T01:58:31.000Z,990.2172240000001
2022-12-23T01:59:01.000Z,990.2172240000001
2022-12-23T01:59:28.000Z,990.115632
2022-12-23T01:59:51.000Z,990.115632
2022-12-23T02:00:21.000Z,990.115632
2022-12-23T02:00:56.000Z,990.01404
2022-12-23T02:01:24.000Z,990.01404
2022-12-23T02:01:47.000Z,989.9124479999999
2022-12-23T02:02:12.000Z,989.9124479999999
2022-12-23T02:02:40.000Z,990.115632
2022-12-23T02:03:10.000Z,990.115632
2022-12-23T02:03:37.000Z,990.2172240000001
2022-12-23T02:04:04.000Z,990.2172240000001
2022-12-23T02:04:30.000Z,990.115632
2022-12-23T02:04:55.000Z,990.115632
2022-12-23T02:05:26.000Z,990.115632
2022-12-23T02:06:01.000Z,990.115632
2022-12-23T02:06:31.000Z,990.01404
2022-12-23T02:07:01.000Z,990.01404
2022-12-23T02:07:27.000Z,990.01404
2022-12-23T02:07:51.000Z,990.01404
2022-12-23T02:08:21.000Z,990.01404
2022-12-23T02:08:56.000Z,990.2172240000001
2022-12-23T02:09:26.000Z,990.2172240000001
2022-12-23T02:10:01.000Z,990.115632
2022-12-23T02:10:31.000Z,990.2172240000001
2022-12-23T02:11:01.000Z,990.2172240000001
2022-12-23T02:11:37.000Z,990.318816
2022-12-23T02:12:06.000Z,990.318816
2022-12-23T02:12:31.000Z,990.115632
2022-12-23T02:12:56.000Z,990.115632
2022-12-23T02:13:26.000Z,990.115632
2022-12-23T02:14:01.000Z,990.115632
2022-12-23T02:14:31.000Z,990.115632
2022-12-23T02:15:01.000Z,990.115632
2022-12-23T02:15:27.000Z,990.115632
2022-12-23T02:15:51.000Z,990.115632
2022-12-23T02:16:21.000Z,990.115632
2022-12-23T02:16:56.000Z,990.318816
2022-12-23T02:17:26.000Z,990.318816
2022-12-23T02:18:01.000Z,990.2172240000001
2022-12-23T02:18:31.000Z,990.2172240000001
2022-12-23T02:19:01.000Z,990.2172240000001
2022-12-23T02:19:27.000Z,990.4204080000001
2022-12-23T02:19:51.000Z,990.4204080000001
2022-12-23T02:20:21.000Z,990.4204080000001
2022-12-23T02:20:56.000Z,990.2172240000001
2022-12-23T02:21:26.000Z,990.2172240000001
2022-12-23T02:22:01.000Z,990.2172240000001
2022-12-23T02:22:31.000Z,990.2172240000001
2022-12-23T02:23:01.000Z,990.2172240000001
2022-12-23T02:23:27.000Z,990.115632
2022-12-23T02:23:51.000Z,990.115632
2022-12-23T02:24:21.000Z,990.115632
2022-12-23T02:24:56.000Z,990.2172240000001
2022-12-23T02:25:26.000Z,990.2172240000001
2022-12-23T02:26:01.000Z,990.2172240000001
2022-12-23T02:26:31.000Z,990.318816
2022-12-23T02:27:01.000Z,990.318816
2022-12-23T02:27:27.000Z,990.2172240000001
2022-12-23T02:27:51.000Z,990.2172240000001
2022-12-23T02:28:21.000Z,990.2172240000001
2022-12-23T02:28:56.000Z,990.2172240000001
2022-12-23T02:29:26.000Z,990.2172240000001
2022-12-23T02:30:01.000Z,990.522
2022-12-23T02:30:31.000Z,990.4204080000001
2022-12-23T02:31:02.000Z,990.4204080000001
2022-12-23T02:31:30.000Z,990.2172240000001
2022-12-23T02:31:53.000Z,990.2172240000001
2022-12-23T02:32:20.000Z,990.2172240000001
2022-12-23T02:32:56.000Z,990.318816
2022-12-23T02:33:26.000Z,990.318816
2022-12-23T02:34:01.000Z,990.2172240000001
2022-12-23T02:34:31.000Z,990.318816
2022-12-23T02:35:01.000Z,990.318816
2022-12-23T02:35:27.000Z,990.4204080000001
2022-12-23T02:35:51.000Z,990.4204080000001
2022-12-23T02:36:21.000Z,990.4204080000001
2022-12-23T02:36:56.000Z,990.318816
2022-12-23T02:37:26.000Z,990.318816
2022-12-23T02:38:01.000Z,990.522
2022-12-23T02:38:31.000Z,990.318816
2022-12-23T02:39:06.000Z,990.318816
2022-12-23T02:39:28.000Z,990.2172240000001
2022-12-23T02:39:48.000Z,990.2172240000001
2022-12-23T02:40:26.000Z,990.2172240000001
2022-12-23T02:41:05.000Z,990.318816
2022-12-23T02:41:35.000Z,990.318816
2022-12-23T02:42:00.000Z,990.318816
2022-12-23T02:42:26.000Z,990.318816
2022-12-23T02:42:46.000Z,990.318816
2022-12-23T02:43:21.000Z,990.318816
2022-12-23T02:43:51.000Z,990.522
2022-12-23T02:44:21.000Z,990.522
2022-12-23T02:44:56.000Z,990.522
2022-12-23T02:45:26.000Z,990.522
2022-12-23T02:46:01.000Z,990.826776
2022-12-23T02:46:35.000Z,990.2172240000001
2022-12-23T02:47:01.000Z,990.2172240000001
2022-12-23T02:47:27.000Z,990.6235919999999
2022-12-23T02:47:51.000Z,990.6235919999999
2022-12-23T02:48:21.000Z,990.6235919999999
2022-12-23T02:48:56.000Z,990.522
2022-12-23T02:49:26.000Z,990.522
2022-12-23T02:50:01.000Z,990.522
2022-12-23T02:50:31.000Z,990.318816
2022-12-23T02:51:01.000Z,990.318816
2022-12-23T02:51:27.000Z,990.522
2022-12-23T02:51:52.000Z,990.522
2022-12-23T02:52:21.000Z,990.522
2022-12-23T02:52:56.000Z,990.522
2022-12-23T02:53:26.000Z,990.522
2022-12-23T02:54:01.000Z,990.6235919999999
2022-12-23T02:54:31.000Z,990.4204080000001
2022-12-23T02:55:01.000Z,990.4204080000001
2022-12-23T02:55:30.000Z,990.6235919999999
2022-12-23T02:55:53.000Z,990.6235919999999
2022-12-23T02:56:20.000Z,990.6235919999999
2022-12-23T02:56:56.000Z,990.6235919999999
2022-12-23T02:57:35.000Z,990.6235919999999
2022-12-23T02:58:00.000Z,990.6235919999999
2022-12-23T02:58:26.000Z,990.6235919999999
2022-12-23T02:58:55.000Z,990.6235919999999
2022-12-23T02:59:22.000Z,990.6235919999999
2022-12-23T02:59:48.000Z,990.6235919999999
2022-12-23T03:00:26.000Z,990.6235919999999
2022-12-23T03:01:05.000Z,990.6235919999999
2022-12-23T03:01:26.000Z,990.6235919999999
2022-12-23T03:02:01.000Z,990.6235919999999
2022-12-23T03:02:31.000Z,990.522
2022-12-23T03:03:01.000Z,990.522
2022-12-23T03:03:27.000Z,990.522
2022-12-23T03:03:51.000Z,990.522
2022-12-23T03:04:21.000Z,990.522
2022-12-23T03:04:56.000Z,990.826776
2022-12-23T03:05:26.000Z,990.826776
2022-12-23T03:06:01.000Z,990.725184
2022-12-23T03:06:31.000Z,990.725184
2022-12-23T03:07:01.000Z,990.725184
2022-12-23T03:07:27.000Z,990.6235919999999
2022-12-23T03:07:48.000Z,990.6235919999999
2022-12-23T03:08:06.000Z,990.6235919999999
2022-12-23T03:08:31.000Z,990.928368
2022-12-23T03:08:56.000Z,990.928368
2022-12-23T03:09:26.000Z,990.928368
2022-12-23T03:10:01.000Z,990.826776
2022-12-23T03:10:31.000Z,990.826776
2022-12-23T03:11:01.000Z,990.826776
2022-12-23T03:11:28.000Z,990.6235919999999
2022-12-23T03:11:51.000Z,990.6235919999999
2022-12-23T03:12:21.000Z,990.6235919999999
2022-12-23T03:12:56.000Z,990.826776
2022-12-23T03:13:26.000Z,990.826776
2022-12-23T03:14:01.000Z,990.826776
2022-12-23T03:14:26.000Z,990.928368
2022-12-23T03:14:55.000Z,990.928368
2022-12-23T03:15:21.000Z,990.928368
2022-12-23T03:15:51.000Z,990.826776
2022-12-23T03:16:21.000Z,990.826776
2022-12-23T03:16:56.000Z,990.725184
2022-12-23T03:17:26.000Z,990.725184
2022-12-23T03:18:01.000Z,990.6235919999999
2022-12-23T03:18:31.000Z,990.928368
2022-12-23T03:19:01.000Z,990.928368
2022-12-23T03:19:28.000Z,990.725184
2022-12-23T03:19:51.000Z,990.725184
2022-12-23T03:20:21.000Z,990.725184
2022-12-23T03:20:56.000Z,990.725184
2022-12-23T03:21:35.000Z,990.6235919999999
2022-12-23T03:22:01.000Z,990.6235919999999
2022-12-23T03:22:31.000Z,990.6235919999999
2022-12-23T03:23:01.000Z,990.6235919999999
2022-12-23T03:23:28.000Z,990.826776
2022-12-23T03:23:51.000Z,990.826776
2022-12-23T03:24:21.000Z,990.826776
2022-12-23T03:24:56.000Z,990.826776
2022-12-23T03:25:26.000Z,990.826776
2022-12-23T03:26:01.000Z,990.826776
2022-12-23T03:26:31.000Z,990.826776
2022-12-23T03:27:01.000Z,990.826776
2022-12-23T03:27:27.000Z,991.02996
2022-12-23T03:27:51.000Z,991.02996
2022-12-23T03:28:22.000Z,991.02996
2022-12-23T03:28:56.000Z,990.928368
2022-12-23T03:29:26.000Z,990.928368
2022-12-23T03:30:01.000Z,990.826776
2022-12-23T03:30:31.000Z,990.826776
2022-12-23T03:31:01.000Z,990.826776
2022-12-23T03:31:27.000Z,990.725184
2022-12-23T03:31:51.000Z,990.725184
2022-12-23T03:32:21.000Z,990.725184
2022-12-23T03:32:56.000Z,991.2331439999999
2022-12-23T03:33:26.000Z,991.2331439999999
2022-12-23T03:34:01.000Z,990.725184
2022-12-23T03:34:31.000Z,991.131552
2022-12-23T03:35:01.000Z,991.131552
2022-12-23T03:35:37.000Z,990.826776
2022-12-23T03:36:04.000Z,990.826776
2022-12-23T03:36:21.000Z,990.826776
2022-12-23T03:36:56.000Z,991.02996
2022-12-23T03:37:26.000Z,991.02996
2022-12-23T03:38:01.000Z,991.02996
2022-12-23T03:38:31.000Z,990.928368
2022-12-23T03:39:01.000Z,990.928368
2022-12-23T03:39:27.000Z,990.928368
2022-12-23T03:39:51.000Z,990.928368
2022-12-23T03:40:21.000Z,990.928368
2022-12-23T03:40:56.000Z,991.131552
2022-12-23T03:41:26.000Z,991.131552
2022-12-23T03:42:01.000Z,990.928368
2022-12-23T03:42:31.000Z,991.131552
2022-12-23T03:43:01.000Z,991.131552
2022-12-23T03:43:28.000Z,991.02996
2022-12-23T03:43:51.000Z,991.02996
2022-12-23T03:44:21.000Z,991.02996
2022-12-23T03:44:56.000Z,991.02996
2022-12-23T03:45:26.000Z,991.02996
2022-12-23T03:46:01.000Z,991.131552
2022-12-23T03:46:31.000Z,991.131552
2022-12-23T03:47:01.000Z,991.131552
2022-12-23T03:47:27.000Z,991.02996
2022-12-23T03:47:51.000Z,991.02996
2022-12-23T03:48:21.000Z,991.02996
2022-12-23T03:48:55.000Z,991.334736
2022-12-23T03:49:24.000Z,991.334736
2022-12-23T03:49:47.000Z,991.131552
2022-12-23T03:50:12.000Z,991.131552
2022-12-23T03:50:40.000Z,991.131552
2022-12-23T03:51:03.000Z,991.131552
2022-12-23T03:51:30.000Z,991.02996
2022-12-23T03:51:48.000Z,991.02996
2022-12-23T03:52:06.000Z,991.02996
2022-12-23T03:52:31.000Z,991.2331439999999
2022-12-23T03:52:56.000Z,991.2331439999999
2022-12-23T03:53:26.000Z,991.2331439999999
2022-12-23T03:54:01.000Z,991.131552
2022-12-23T03:54:31.000Z,991.131552
2022-12-23T03:55:01.000Z,991.131552
2022-12-23T03:55:27.000Z,991.02996
2022-12-23T03:55:51.000Z,991.02996
2022-12-23T03:56:21.000Z,991.02996
2022-12-23T03:56:56.000Z,991.02996
2022-12-23T03:57:26.000Z,991.02996
2022-12-23T03:58:10.000Z,991.02996
2022-12-23T03:58:40.000Z,990.928368
2022-12-23T03:59:01.000Z,990.928368
2022-12-23T03:59:28.000Z,991.131552
2022-12-23T03:59:51.000Z,991.131552
2022-12-23T04:00:21.000Z,991.131552
2022-12-23T04:00:56.000Z,991.131552
2022-12-23T04:01:26.000Z,991.131552
2022-12-23T04:02:01.000Z,991.02996
2022-12-23T04:02:31.000Z,991.02996
2022-12-23T04:03:01.000Z,991.02996
2022-12-23T04:03:28.000Z,991.131552
2022-12-23T04:03:51.000Z,991.131552
2022-12-23T04:04:21.000Z,991.131552
2022-12-23T04:04:56.000Z,991.02996
2022-12-23T04:05:27.000Z,991.02996
2022-12-23T04:06:01.000Z,991.2331439999999
2022-12-23T04:06:26.000Z,991.334736
2022-12-23T04:06:46.000Z,991.334736
2022-12-23T04:07:21.000Z,991.334736
2022-12-23T04:07:51.000Z,991.131552
2022-12-23T04:08:21.000Z,991.131552
2022-12-23T04:08:56.000Z,991.131552
2022-12-23T04:09:26.000Z,991.131552
2022-12-23T04:10:01.000Z,991.2331439999999
2022-12-23T04:10:31.000Z,991.02996
2022-12-23T04:11:01.000Z,991.02996
2022-12-23T04:11:27.000Z,991.02996
2022-12-23T04:11:51.000Z,991.02996
2022-12-23T04:12:21.000Z,991.02996
2022-12-23T04:12:56.000Z,991.02996
2022-12-23T04:13:35.000Z,990.928368
2022-12-23T04:14:10.000Z,990.928368
2022-12-23T04:14:31.000Z,991.131552
2022-12-23T04:15:01.000Z,991.131552
2022-12-23T04:15:28.000Z,991.131552
2022-12-23T04:15:51.000Z,991.131552
2022-12-23T04:16:21.000Z,991.131552
2022-12-23T04:16:56.000Z,991.131552
2022-12-23T04:17:26.000Z,991.131552
2022-12-23T04:18:01.000Z,991.02996
2022-12-23T04:18:31.000Z,990.928368
2022-12-23T04:19:01.000Z,990.928368
2022-12-23T04:19:27.000Z,991.02996
2022-12-23T04:20:00.000Z,991.02996
2022-12-23T04:20:30.000Z,991.2331439999999
2022-12-23T04:20:55.000Z,991.2331439999999
2022-12-23T04:21:24.000Z,991.2331439999999
2022-12-23T04:21:47.000Z,991.131552
2022-12-23T04:22:12.000Z,991.131552
2022-12-23T04:22:40.000Z,991.02996
2022-12-23T04:23:03.000Z,991.02996
2022-12-23T04:23:30.000Z,991.131552
2022-12-23T04:23:53.000Z,991.131552
2022-12-23T04:24:20.000Z,991.131552
2022-12-23T04:24:56.000Z,991.131552
2022-12-23T04:25:35.000Z,991.2331439999999
2022-12-23T04:26:01.000Z,991.2331439999999
2022-12-23T04:26:32.000Z,991.131552
2022-12-23T04:27:01.000Z,991.131552
2022-12-23T04:27:27.000Z,991.131552
2022-12-23T04:27:51.000Z,991.131552
2022-12-23T04:28:21.000Z,991.131552
2022-12-23T04:28:56.000Z,991.131552
2022-12-23T04:29:26.000Z,991.131552
2022-12-23T04:30:01.000Z,990.928368
2022-12-23T04:30:31.000Z,991.2331439999999
2022-12-23T04:31:01.000Z,991.2331439999999
2022-12-23T04:31:27.000Z,991.131552
2022-12-23T04:32:00.000Z,991.131552
2022-12-23T04:32:21.000Z,991.131552
2022-12-23T04:32:56.000Z,991.2331439999999
2022-12-23T04:33:26.000Z,991.2331439999999
2022-12-23T04:34:01.000Z,990.928368
2022-12-23T04:34:31.000Z,991.02996
2022-12-23T04:35:01.000Z,991.02996
2022-12-23T04:35:27.000Z,991.131552
2022-12-23T04:35:51.000Z,991.131552
2022-12-23T04:36:21.000Z,991.131552
2022-12-23T04:36:56.000Z,991.02996
2022-12-23T04:37:26.000Z,991.02996
2022-12-23T04:38:01.000Z,991.334736
2022-12-23T04:38:31.000Z,991.334736
2022-12-23T04:39:06.000Z,991.334736
2022-12-23T04:39:29.000Z,991.131552
2022-12-23T04:39:48.000Z,991.131552
2022-12-23T04:40:15.000Z,991.131552
2022-12-23T04:40:42.000Z,991.2331439999999
2022-12-23T04:41:08.000Z,991.2331439999999
2022-12-23T04:41:35.000Z,991.02996
2022-12-23T04:42:00.000Z,991.02996
2022-12-23T04:42:26.000Z,990.928368
2022-12-23T04:42:55.000Z,990.928368
2022-12-23T04:43:22.000Z,990.928368
2022-12-23T04:43:48.000Z,991.2331439999999
2022-12-23T04:44:15.000Z,991.2331439999999
2022-12-23T04:44:42.000Z,991.131552
2022-12-23T04:45:08.000Z,991.131552
2022-12-23T04:45:35.000Z,991.131552
2022-12-23T04:46:00.000Z,991.131552
2022-12-23T04:46:26.000Z,991.2331439999999
2022-12-23T04:46:55.000Z,991.2331439999999
2022-12-23T04:47:22.000Z,991.2331439999999
2022-12-23T04:47:48.000Z,991.131552
2022-12-23T04:48:06.000Z,991.131552
2022-12-23T04:48:31.000Z,991.02996
2022-12-23T04:48:57.000Z,991.02996
2022-12-23T04:49:26.000Z,991.02996
2022-12-23T04:50:01.000Z,991.334736
2022-12-23T04:50:31.000Z,991.131552
2022-12-23T04:51:01.000Z,991.131552
2022-12-23T04:51:27.000Z,991.2331439999999
2022-12-23T04:51:51.000Z,991.2331439999999
2022-12-23T04:52:21.000Z,991.2331439999999
2022-12-23T04:52:56.000Z,991.334736
2022-12-23T04:53:26.000Z,991.334736
2022-12-23T04:54:01.000Z,991.334736
2022-12-23T04:54:40.000Z,991.2331439999999
2022-12-23T04:55:03.000Z,991.2331439999999
2022-12-23T04:55:27.000Z,991.2331439999999
2022-12-23T04:55:51.000Z,991.2331439999999
2022-12-23T04:56:21.000Z,991.2331439999999
2022-12-23T04:56:56.000Z,991.2331439999999
2022-12-23T04:57:26.000Z,991.2331439999999
2022-12-23T04:58:01.000Z,991.334736
2022-12-23T04:58:40.000Z,991.2331439999999
2022-12-23T04:59:01.000Z,991.2331439999999
2022-12-23T04:59:27.000Z,991.2331439999999
2022-12-23T04:59:51.000Z,991.2331439999999
2022-12-23T05:00:21.000Z,991.2331439999999
2022-12-23T05:00:56.000Z,991.334736
2022-12-23T05:01:26.000Z,991.334736
2022-12-23T05:02:10.000Z,991.334736
2022-12-23T05:02:40.000Z,991.131552